createdAt,value
2022-08-26T00:00:11.638Z,0.00
2022-08-26T00:01:11.650Z,0.00
2022-08-26T00:02:11.690Z,0.00
2022-08-26T00:03:11.624Z,0.00
2022-08-26T00:04:11.666Z,0.00
2022-08-26T00:05:11.584Z,0.00
2022-08-26T00:06:11.577Z,0.00
2022-08-26T00:07:11.576Z,0.00
2022-08-26T00:08:13.028Z,0.00
2022-08-26T00:09:11.532Z,0.00
2022-08-26T00:10:11.533Z,0.00
2022-08-26T00:11:11.532Z,0.00
2022-08-26T00:12:12.109Z,0.00
2022-08-26T00:13:11.497Z,0.00
2022-08-26T00:14:11.469Z,0.00
2022-08-26T00:15:11.473Z,0.00
2022-08-26T00:16:11.671Z,0.00
2022-08-26T00:17:11.480Z,0.00
2022-08-26T00:18:16.862Z,0.00
2022-08-26T00:19:11.426Z,0.00
2022-08-26T00:20:11.419Z,0.00
2022-08-26T00:21:11.442Z,0.00
2022-08-26T00:22:11.433Z,0.00
2022-08-26T00:23:11.404Z,0.00
2022-08-26T00:24:11.384Z,0.00
2022-08-26T00:25:11.384Z,0.00
2022-08-26T00:26:11.346Z,0.00
2022-08-26T00:27:11.360Z,0.00
2022-08-26T00:28:11.323Z,0.00
2022-08-26T00:29:11.310Z,0.00
2022-08-26T00:30:11.305Z,0.00
2022-08-26T00:31:11.323Z,0.00
2022-08-26T00:32:11.526Z,0.00
2022-08-26T00:33:11.267Z,0.00
2022-08-26T00:34:12.021Z,0.00
2022-08-26T00:35:11.260Z,0.00
2022-08-26T00:36:20.433Z,0.00
2022-08-26T00:37:15.666Z,0.00
2022-08-26T00:38:11.228Z,0.00
2022-08-26T00:39:11.211Z,0.00
2022-08-26T00:40:11.337Z,0.00
2022-08-26T00:41:11.178Z,0.00
2022-08-26T00:42:11.190Z,0.00
2022-08-26T00:43:11.187Z,0.00
2022-08-26T00:44:11.296Z,0.00
2022-08-26T00:45:11.740Z,0.00
2022-08-26T00:46:11.205Z,0.00
2022-08-26T00:47:11.156Z,0.00
2022-08-26T00:48:11.104Z,0.00
2022-08-26T00:49:11.809Z,0.00
2022-08-26T00:50:11.110Z,0.00
2022-08-26T00:51:11.068Z,0.00
2022-08-26T00:52:12.075Z,0.00
2022-08-26T00:53:11.044Z,0.00
2022-08-26T00:54:11.051Z,0.00
2022-08-26T00:55:11.052Z,0.00
2022-08-26T00:56:11.014Z,0.00
2022-08-26T00:57:16.477Z,0.00
2022-08-26T00:58:10.997Z,0.00
2022-08-26T00:59:10.975Z,0.00
2022-08-26T01:00:10.999Z,0.00
2022-08-26T01:01:11.027Z,0.00
2022-08-26T01:02:20.916Z,0.00
2022-08-26T01:03:11.623Z,0.00
2022-08-26T01:04:10.959Z,0.00
2022-08-26T01:05:10.919Z,0.00
2022-08-26T01:06:12.970Z,0.00
2022-08-26T01:07:10.903Z,0.00
2022-08-26T01:08:10.874Z,0.00
2022-08-26T01:09:10.874Z,0.00
2022-08-26T01:10:10.884Z,0.00
2022-08-26T01:11:10.837Z,0.00
2022-08-26T01:12:10.918Z,0.00
2022-08-26T01:13:10.853Z,0.00
2022-08-26T01:14:10.844Z,0.00
2022-08-26T01:15:10.809Z,0.00
2022-08-26T01:16:10.830Z,0.00
2022-08-26T01:17:10.807Z,0.00
2022-08-26T01:18:10.762Z,0.00
2022-08-26T01:19:10.750Z,0.00
2022-08-26T01:20:10.750Z,0.00
2022-08-26T01:21:10.730Z,0.00
2022-08-26T01:22:10.736Z,0.00
2022-08-26T01:23:10.706Z,0.00
2022-08-26T01:24:10.720Z,0.00
2022-08-26T01:25:10.693Z,0.00
2022-08-26T01:26:19.473Z,0.00
2022-08-26T01:27:10.682Z,0.00
2022-08-26T01:28:10.650Z,0.00
2022-08-26T01:29:10.662Z,0.00
2022-08-26T01:30:10.622Z,0.00
2022-08-26T01:31:10.676Z,0.00
2022-08-26T01:32:10.652Z,0.00
2022-08-26T01:33:10.592Z,0.00
2022-08-26T01:34:10.591Z,0.00
2022-08-26T01:35:10.585Z,0.00
2022-08-26T01:36:10.554Z,0.00
2022-08-26T01:37:15.473Z,0.00
2022-08-26T01:38:10.541Z,0.00
2022-08-26T01:39:10.527Z,0.00
2022-08-26T01:40:10.575Z,0.00
2022-08-26T01:41:16.156Z,0.00
2022-08-26T01:42:10.597Z,0.00
2022-08-26T01:43:10.488Z,0.00
2022-08-26T01:44:10.465Z,0.00
2022-08-26T01:45:10.458Z,0.00
2022-08-26T01:46:10.542Z,0.00
2022-08-26T01:47:10.473Z,0.00
2022-08-26T01:48:10.421Z,0.00
2022-08-26T01:49:10.436Z,0.00
2022-08-26T01:50:10.397Z,0.00
2022-08-26T01:51:10.397Z,0.00
2022-08-26T01:52:10.791Z,0.00
2022-08-26T01:53:10.721Z,0.00
2022-08-26T01:54:12.050Z,0.00
2022-08-26T01:55:10.349Z,0.00
2022-08-26T01:56:10.345Z,0.00
2022-08-26T01:57:10.339Z,0.00
2022-08-26T01:58:10.311Z,0.00
2022-08-26T01:59:10.728Z,0.00
2022-08-26T02:00:10.301Z,0.00
2022-08-26T02:01:10.335Z,0.00
2022-08-26T02:02:10.315Z,0.00
2022-08-26T02:03:10.258Z,0.00
2022-08-26T02:04:10.357Z,0.00
2022-08-26T02:05:10.246Z,0.00
2022-08-26T02:06:10.360Z,0.00
2022-08-26T02:07:10.257Z,0.00
2022-08-26T02:08:10.202Z,0.00
2022-08-26T02:09:10.190Z,0.00
2022-08-26T02:10:10.185Z,0.00
2022-08-26T02:11:10.176Z,0.00
2022-08-26T02:12:10.363Z,0.00
2022-08-26T02:13:10.165Z,0.00
2022-08-26T02:14:10.154Z,0.00
2022-08-26T02:15:11.079Z,0.00
2022-08-26T02:16:10.164Z,0.00
2022-08-26T02:17:10.122Z,0.00
2022-08-26T02:18:14.181Z,0.00
2022-08-26T02:19:10.090Z,0.00
2022-08-26T02:20:13.359Z,0.00
2022-08-26T02:21:10.068Z,0.00
2022-08-26T02:22:10.070Z,0.00
2022-08-26T02:23:10.044Z,0.00
2022-08-26T02:24:10.027Z,0.00
2022-08-26T02:25:10.027Z,0.00
2022-08-26T02:26:10.023Z,0.00
2022-08-26T02:27:10.015Z,0.00
2022-08-26T02:28:09.982Z,0.00
2022-08-26T02:29:09.975Z,0.00
2022-08-26T02:30:09.975Z,0.00
2022-08-26T02:31:10.069Z,0.00
2022-08-26T02:32:09.965Z,0.00
2022-08-26T02:33:09.942Z,0.00
2022-08-26T02:34:10.805Z,0.00
2022-08-26T02:35:09.929Z,0.00
2022-08-26T02:36:09.895Z,0.00
2022-08-26T02:37:09.917Z,0.00
2022-08-26T02:38:11.011Z,0.00
2022-08-26T02:39:09.888Z,0.00
2022-08-26T02:40:09.927Z,0.00
2022-08-26T02:41:09.846Z,0.00
2022-08-26T02:42:09.870Z,0.00
2022-08-26T02:43:09.889Z,0.00
2022-08-26T02:44:09.837Z,0.00
2022-08-26T02:45:09.797Z,0.00
2022-08-26T02:46:09.794Z,0.00
2022-08-26T02:47:09.826Z,0.00
2022-08-26T02:48:09.771Z,0.00
2022-08-26T02:49:09.768Z,0.00
2022-08-26T02:50:09.746Z,0.00
2022-08-26T02:51:09.756Z,0.00
2022-08-26T02:52:09.747Z,0.00
2022-08-26T02:53:09.948Z,0.00
2022-08-26T02:54:09.742Z,0.00
2022-08-26T02:55:09.700Z,0.00
2022-08-26T02:56:09.691Z,0.00
2022-08-26T02:57:09.712Z,0.00
2022-08-26T02:58:09.670Z,0.00
2022-08-26T02:59:09.663Z,0.00
2022-08-26T03:00:09.641Z,0.00
2022-08-26T03:01:09.687Z,0.00
2022-08-26T03:02:09.672Z,0.00
2022-08-26T03:03:09.808Z,0.00
2022-08-26T03:04:09.598Z,0.00
2022-08-26T03:05:09.582Z,0.00
2022-08-26T03:06:09.640Z,0.00
2022-08-26T03:07:09.589Z,0.00
2022-08-26T03:08:09.579Z,0.00
2022-08-26T03:09:09.543Z,0.00
2022-08-26T03:10:09.536Z,0.00
2022-08-26T03:11:09.531Z,0.00
2022-08-26T03:12:09.534Z,0.00
2022-08-26T03:13:09.717Z,0.00
2022-08-26T03:14:09.498Z,0.00
2022-08-26T03:15:16.608Z,0.00
2022-08-26T03:16:09.535Z,0.00
2022-08-26T03:17:09.629Z,0.00
2022-08-26T03:18:09.450Z,0.00
2022-08-26T03:19:09.439Z,0.00
2022-08-26T03:20:09.426Z,0.00
2022-08-26T03:21:09.413Z,0.00
2022-08-26T03:22:09.447Z,0.00
2022-08-26T03:23:09.512Z,0.00
2022-08-26T03:24:09.387Z,0.00
2022-08-26T03:25:09.367Z,0.00
2022-08-26T03:26:10.906Z,0.00
2022-08-26T03:27:09.365Z,0.00
2022-08-26T03:28:09.667Z,0.00
2022-08-26T03:29:09.331Z,0.00
2022-08-26T03:30:11.813Z,0.00
2022-08-26T03:31:09.329Z,0.00
2022-08-26T03:32:09.315Z,0.00
2022-08-26T03:33:09.409Z,0.00
2022-08-26T03:34:09.265Z,0.00
2022-08-26T03:35:09.258Z,0.00
2022-08-26T03:36:09.246Z,0.00
2022-08-26T03:37:09.268Z,0.00
2022-08-26T03:38:09.227Z,0.00
2022-08-26T03:39:09.224Z,0.00
2022-08-26T03:40:09.267Z,0.00
2022-08-26T03:41:09.193Z,0.00
2022-08-26T03:42:09.208Z,0.00
2022-08-26T03:43:10.011Z,0.00
2022-08-26T03:44:09.169Z,0.00
2022-08-26T03:45:13.654Z,0.00
2022-08-26T03:46:09.175Z,0.00
2022-08-26T03:47:09.141Z,0.00
2022-08-26T03:48:09.117Z,0.00
2022-08-26T03:49:09.099Z,0.00
2022-08-26T03:50:09.111Z,0.00
2022-08-26T03:51:09.079Z,0.00
2022-08-26T03:52:09.109Z,0.00
2022-08-26T03:53:13.273Z,0.00
2022-08-26T03:54:09.052Z,0.00
2022-08-26T03:55:09.055Z,0.00
2022-08-26T03:56:09.072Z,0.00
2022-08-26T03:57:09.037Z,0.00
2022-08-26T03:58:09.010Z,0.00
2022-08-26T03:59:08.986Z,0.00
2022-08-26T04:00:08.977Z,0.00
2022-08-26T04:01:08.983Z,0.00
2022-08-26T04:02:11.715Z,0.00
2022-08-26T04:03:09.674Z,0.00
2022-08-26T04:04:08.971Z,0.00
2022-08-26T04:05:08.938Z,0.00
2022-08-26T04:06:08.952Z,0.00
2022-08-26T04:07:08.924Z,0.00
2022-08-26T04:08:08.912Z,0.00
2022-08-26T04:09:08.890Z,0.00
2022-08-26T04:10:08.928Z,0.00
2022-08-26T04:11:08.886Z,0.00
2022-08-26T04:12:08.881Z,0.00
2022-08-26T04:13:09.009Z,0.00
2022-08-26T04:14:08.826Z,0.00
2022-08-26T04:15:08.814Z,0.00
2022-08-26T04:16:08.805Z,0.00
2022-08-26T04:17:08.840Z,0.00
2022-08-26T04:18:08.780Z,0.00
2022-08-26T04:19:08.783Z,0.00
2022-08-26T04:20:08.776Z,0.00
2022-08-26T04:21:08.771Z,0.00
2022-08-26T04:22:08.733Z,0.00
2022-08-26T04:23:08.910Z,0.00
2022-08-26T04:24:12.172Z,0.00
2022-08-26T04:25:08.705Z,0.00
2022-08-26T04:26:08.711Z,0.00
2022-08-26T04:27:08.700Z,0.00
2022-08-26T04:28:08.705Z,0.00
2022-08-26T04:29:08.678Z,0.00
2022-08-26T04:30:08.913Z,0.00
2022-08-26T04:31:08.646Z,0.00
2022-08-26T04:32:08.641Z,0.00
2022-08-26T04:33:12.905Z,0.00
2022-08-26T04:34:08.676Z,0.00
2022-08-26T04:35:08.598Z,0.00
2022-08-26T04:36:08.635Z,0.00
2022-08-26T04:37:08.564Z,0.00
2022-08-26T04:38:08.565Z,0.00
2022-08-26T04:39:08.569Z,0.00
2022-08-26T04:40:08.573Z,5.62
2022-08-26T04:41:14.962Z,5.62
2022-08-26T04:42:08.533Z,5.62
2022-08-26T04:43:08.647Z,5.62
2022-08-26T04:44:08.500Z,5.62
2022-08-26T04:45:10.435Z,5.62
2022-08-26T04:46:08.588Z,5.62
2022-08-26T04:47:08.469Z,5.62
2022-08-26T04:48:08.453Z,5.62
2022-08-26T04:49:08.458Z,5.62
2022-08-26T04:50:08.453Z,5.62
2022-08-26T04:51:08.409Z,5.62
2022-08-26T04:52:08.406Z,5.62
2022-08-26T04:53:08.640Z,5.62
2022-08-26T04:54:08.407Z,11.25
2022-08-26T04:55:08.768Z,11.25
2022-08-26T04:56:08.367Z,11.25
2022-08-26T04:57:08.355Z,11.25
2022-08-26T04:58:08.339Z,11.25
2022-08-26T04:59:08.326Z,11.25
2022-08-26T05:00:08.378Z,11.25
2022-08-26T05:01:08.317Z,11.25
2022-08-26T05:02:08.393Z,11.25
2022-08-26T05:03:10.401Z,11.25
2022-08-26T05:04:08.386Z,11.25
2022-08-26T05:05:08.258Z,11.25
2022-08-26T05:06:08.271Z,11.25
2022-08-26T05:07:08.264Z,16.88
2022-08-26T05:08:08.222Z,16.88
2022-08-26T05:09:08.212Z,16.88
2022-08-26T05:10:08.807Z,16.88
2022-08-26T05:11:08.189Z,16.88
2022-08-26T05:12:08.196Z,22.50
2022-08-26T05:13:08.236Z,22.50
2022-08-26T05:14:08.158Z,22.50
2022-08-26T05:15:08.156Z,22.50
2022-08-26T05:16:08.207Z,22.50
2022-08-26T05:17:08.169Z,22.50
2022-08-26T05:18:08.141Z,22.50
2022-08-26T05:19:08.559Z,22.50
2022-08-26T05:20:08.096Z,22.50
2022-08-26T05:21:08.086Z,22.50
2022-08-26T05:22:08.074Z,22.50
2022-08-26T05:23:08.202Z,22.50
2022-08-26T05:24:08.063Z,22.50
2022-08-26T05:25:08.074Z,22.50
2022-08-26T05:26:08.029Z,22.50
2022-08-26T05:27:11.837Z,22.50
2022-08-26T05:28:08.028Z,16.88
2022-08-26T05:29:07.989Z,16.88
2022-08-26T05:30:07.985Z,16.88
2022-08-26T05:31:08.066Z,22.50
2022-08-26T05:32:07.955Z,22.50
2022-08-26T05:33:08.218Z,22.50
2022-08-26T05:34:08.428Z,22.50
2022-08-26T05:35:09.020Z,22.50
2022-08-26T05:36:07.911Z,22.50
2022-08-26T05:37:07.904Z,22.50
2022-08-26T05:38:12.282Z,22.50
2022-08-26T05:39:07.904Z,16.88
2022-08-26T05:40:07.939Z,22.50
2022-08-26T05:41:07.871Z,22.50
2022-08-26T05:42:07.849Z,22.50
2022-08-26T05:43:07.972Z,22.50
2022-08-26T05:44:07.842Z,28.12
2022-08-26T05:45:07.830Z,22.50
2022-08-26T05:46:07.827Z,22.50
2022-08-26T05:47:07.802Z,22.50
2022-08-26T05:48:07.780Z,22.50
2022-08-26T05:49:12.241Z,22.50
2022-08-26T05:50:07.763Z,22.50
2022-08-26T05:51:07.756Z,22.50
2022-08-26T05:52:07.752Z,22.50
2022-08-26T05:53:07.835Z,28.12
2022-08-26T05:54:07.753Z,22.50
2022-08-26T05:55:07.710Z,22.50
2022-08-26T05:56:07.702Z,22.50
2022-08-26T05:57:07.724Z,22.50
2022-08-26T05:58:07.674Z,28.12
2022-08-26T05:59:10.891Z,28.12
2022-08-26T06:00:07.689Z,28.12
2022-08-26T06:01:07.673Z,28.12
2022-08-26T06:02:07.628Z,28.12
2022-08-26T06:03:07.863Z,33.75
2022-08-26T06:04:07.607Z,28.12
2022-08-26T06:05:07.707Z,28.12
2022-08-26T06:06:07.583Z,33.75
2022-08-26T06:07:07.575Z,28.12
2022-08-26T06:08:07.565Z,28.12
2022-08-26T06:09:09.445Z,33.75
2022-08-26T06:10:30.970Z,33.75
2022-08-26T06:11:07.544Z,28.12
2022-08-26T06:12:07.527Z,28.12
2022-08-26T06:13:11.884Z,28.12
2022-08-26T06:14:07.504Z,33.75
2022-08-26T06:15:07.506Z,33.75
2022-08-26T06:16:07.519Z,33.75
2022-08-26T06:17:07.478Z,33.75
2022-08-26T06:18:07.505Z,33.75
2022-08-26T06:19:10.984Z,33.75
2022-08-26T06:20:07.465Z,33.75
2022-08-26T06:21:07.435Z,33.75
2022-08-26T06:22:07.453Z,39.38
2022-08-26T06:23:07.555Z,39.38
2022-08-26T06:24:07.388Z,45.00
2022-08-26T06:25:07.391Z,39.38
2022-08-26T06:26:07.413Z,39.38
2022-08-26T06:27:07.360Z,39.38
2022-08-26T06:28:07.347Z,33.75
2022-08-26T06:29:07.337Z,39.38
2022-08-26T06:30:07.333Z,39.38
2022-08-26T06:31:07.403Z,39.38
2022-08-26T06:32:07.321Z,39.38
2022-08-26T06:33:07.559Z,33.75
2022-08-26T06:34:10.519Z,33.75
2022-08-26T06:35:07.270Z,33.75
2022-08-26T06:36:07.272Z,39.38
2022-08-26T06:37:07.291Z,45.00
2022-08-26T06:38:07.250Z,39.38
2022-08-26T06:39:07.241Z,39.38
2022-08-26T06:40:07.286Z,39.38
2022-08-26T06:41:07.243Z,39.38
2022-08-26T06:42:07.246Z,45.00
2022-08-26T06:43:07.326Z,45.00
2022-08-26T06:44:07.177Z,45.00
2022-08-26T06:45:07.192Z,39.38
2022-08-26T06:46:07.213Z,45.00
2022-08-26T06:47:07.149Z,45.00
2022-08-26T06:48:07.162Z,45.00
2022-08-26T06:49:07.147Z,45.00
2022-08-26T06:50:07.110Z,45.00
2022-08-26T06:51:07.106Z,45.00
2022-08-26T06:52:07.106Z,45.00
2022-08-26T06:53:07.334Z,45.00
2022-08-26T06:54:07.071Z,45.00
2022-08-26T06:55:07.067Z,45.00
2022-08-26T06:56:07.068Z,45.00
2022-08-26T06:57:07.113Z,45.00
2022-08-26T06:58:07.146Z,45.00
2022-08-26T06:59:07.637Z,45.00
2022-08-26T07:00:07.017Z,45.00
2022-08-26T07:01:11.484Z,45.00
2022-08-26T07:02:07.049Z,50.62
2022-08-26T07:03:07.349Z,50.62
2022-08-26T07:04:07.912Z,50.62
2022-08-26T07:05:06.941Z,50.62
2022-08-26T07:06:07.018Z,50.62
2022-08-26T07:07:06.923Z,56.25
2022-08-26T07:08:06.933Z,56.25
2022-08-26T07:09:06.920Z,56.25
2022-08-26T07:10:06.894Z,56.25
2022-08-26T07:11:06.887Z,56.25
2022-08-26T07:12:07.420Z,50.62
2022-08-26T07:13:06.962Z,56.25
2022-08-26T07:14:06.879Z,56.25
2022-08-26T07:15:06.850Z,56.25
2022-08-26T07:16:06.858Z,61.88
2022-08-26T07:17:09.183Z,61.88
2022-08-26T07:18:06.816Z,67.50
2022-08-26T07:19:10.930Z,61.88
2022-08-26T07:20:06.813Z,61.88
2022-08-26T07:21:06.767Z,61.88
2022-08-26T07:22:06.757Z,61.88
2022-08-26T07:23:06.924Z,67.50
2022-08-26T07:24:06.734Z,73.12
2022-08-26T07:25:06.763Z,73.12
2022-08-26T07:26:06.727Z,78.75
2022-08-26T07:27:06.709Z,73.12
2022-08-26T07:28:06.691Z,78.75
2022-08-26T07:29:06.710Z,78.75
2022-08-26T07:30:06.669Z,78.75
2022-08-26T07:31:07.441Z,78.75
2022-08-26T07:32:06.650Z,73.12
2022-08-26T07:33:06.765Z,73.12
2022-08-26T07:34:06.631Z,67.50
2022-08-26T07:35:06.615Z,67.50
2022-08-26T07:36:06.619Z,61.88
2022-08-26T07:37:08.849Z,61.88
2022-08-26T07:38:06.578Z,61.88
2022-08-26T07:39:06.575Z,61.88
2022-08-26T07:40:06.596Z,56.25
2022-08-26T07:41:06.541Z,56.25
2022-08-26T07:42:07.576Z,56.25
2022-08-26T07:43:06.801Z,50.62
2022-08-26T07:44:06.508Z,50.62
2022-08-26T07:45:06.520Z,50.62
2022-08-26T07:46:06.489Z,50.62
2022-08-26T07:47:24.236Z,56.25
2022-08-26T07:48:06.474Z,56.25
2022-08-26T07:49:06.503Z,56.25
2022-08-26T07:50:06.443Z,56.25
2022-08-26T07:51:06.451Z,61.88
2022-08-26T07:52:06.434Z,61.88
2022-08-26T07:53:06.479Z,61.88
2022-08-26T07:54:06.395Z,67.50
2022-08-26T07:55:06.384Z,67.50
2022-08-26T07:56:06.433Z,67.50
2022-08-26T07:57:09.281Z,67.50
2022-08-26T07:58:06.370Z,67.50
2022-08-26T07:59:13.818Z,67.50
2022-08-26T08:00:06.337Z,67.50
2022-08-26T08:01:06.353Z,61.88
2022-08-26T08:02:06.309Z,61.88
2022-08-26T08:03:06.392Z,61.88
2022-08-26T08:04:06.292Z,61.88
2022-08-26T08:05:06.306Z,67.50
2022-08-26T08:06:06.314Z,67.50
2022-08-26T08:07:07.514Z,67.50
2022-08-26T08:08:27.368Z,67.50
2022-08-26T08:09:06.302Z,61.88
2022-08-26T08:10:09.762Z,61.88
2022-08-26T08:11:06.233Z,61.88
2022-08-26T08:12:06.199Z,61.88
2022-08-26T08:13:06.301Z,61.88
2022-08-26T08:14:08.462Z,61.88
2022-08-26T08:15:06.197Z,61.88
2022-08-26T08:16:06.162Z,61.88
2022-08-26T08:17:06.309Z,61.88
2022-08-26T08:18:06.211Z,61.88
2022-08-26T08:19:06.160Z,61.88
2022-08-26T08:20:06.109Z,61.88
2022-08-26T08:21:20.963Z,67.50
2022-08-26T08:22:17.096Z,73.12
2022-08-26T08:23:06.078Z,78.75
2022-08-26T08:24:06.057Z,90.00
2022-08-26T08:25:06.232Z,90.00
2022-08-26T08:26:06.054Z,90.00
2022-08-26T08:27:06.071Z,90.00
2022-08-26T08:28:06.106Z,90.00
2022-08-26T08:29:06.008Z,84.38
2022-08-26T08:30:06.021Z,90.00
2022-08-26T08:31:06.085Z,90.00
2022-08-26T08:32:06.073Z,84.38
2022-08-26T08:33:05.982Z,78.75
2022-08-26T08:34:05.952Z,78.75
2022-08-26T08:35:11.089Z,73.12
2022-08-26T08:36:05.945Z,78.75
2022-08-26T08:37:08.621Z,78.75
2022-08-26T08:38:05.985Z,78.75
2022-08-26T08:39:06.387Z,84.38
2022-08-26T08:40:05.954Z,84.38
2022-08-26T08:41:05.920Z,84.38
2022-08-26T08:42:05.923Z,78.75
2022-08-26T08:43:05.912Z,78.75
2022-08-26T08:44:05.878Z,73.12
2022-08-26T08:45:05.842Z,73.12
2022-08-26T08:46:05.856Z,67.50
2022-08-26T08:47:05.823Z,67.50
2022-08-26T08:48:05.852Z,67.50
2022-08-26T08:49:05.836Z,67.50
2022-08-26T08:50:05.783Z,67.50
2022-08-26T08:51:05.762Z,67.50
2022-08-26T08:52:05.777Z,73.12
2022-08-26T08:53:08.932Z,78.75
2022-08-26T08:54:05.735Z,84.38
2022-08-26T08:55:05.732Z,84.38
2022-08-26T08:56:05.706Z,90.00
2022-08-26T08:57:05.711Z,90.00
2022-08-26T08:58:05.840Z,90.00
2022-08-26T08:59:05.677Z,90.00
2022-08-26T09:00:05.661Z,90.00
2022-08-26T09:01:06.007Z,90.00
2022-08-26T09:02:05.683Z,90.00
2022-08-26T09:03:05.665Z,90.00
2022-08-26T09:04:05.645Z,84.38
2022-08-26T09:05:05.605Z,84.38
2022-08-26T09:06:05.590Z,84.38
2022-08-26T09:07:05.615Z,84.38
2022-08-26T09:08:06.582Z,84.38
2022-08-26T09:09:05.577Z,84.38
2022-08-26T09:10:05.552Z,78.75
2022-08-26T09:11:05.564Z,78.75
2022-08-26T09:12:05.534Z,73.12
2022-08-26T09:13:05.531Z,73.12
2022-08-26T09:14:05.563Z,67.50
2022-08-26T09:15:05.499Z,67.50
2022-08-26T09:16:05.478Z,67.50
2022-08-26T09:17:05.504Z,67.50
2022-08-26T09:18:05.852Z,67.50
2022-08-26T09:19:05.513Z,67.50
2022-08-26T09:20:05.440Z,73.12
2022-08-26T09:21:05.448Z,73.12
2022-08-26T09:22:09.338Z,78.75
2022-08-26T09:23:05.491Z,90.00
2022-08-26T09:24:05.425Z,95.62
2022-08-26T09:25:05.437Z,90.00
2022-08-26T09:26:05.388Z,90.00
2022-08-26T09:27:05.679Z,84.38
2022-08-26T09:28:05.421Z,84.38
2022-08-26T09:29:05.377Z,84.38
2022-08-26T09:30:05.372Z,78.75
2022-08-26T09:31:09.273Z,84.38
2022-08-26T09:32:05.325Z,84.38
2022-08-26T09:33:10.057Z,84.38
2022-08-26T09:34:05.297Z,84.38
2022-08-26T09:35:06.271Z,90.00
2022-08-26T09:36:05.307Z,84.38
2022-08-26T09:37:05.294Z,78.75
2022-08-26T09:38:06.157Z,78.75
2022-08-26T09:39:05.257Z,78.75
2022-08-26T09:40:05.302Z,84.38
2022-08-26T09:41:05.312Z,84.38
2022-08-26T09:42:05.210Z,84.38
2022-08-26T09:43:05.202Z,84.38
2022-08-26T09:44:05.186Z,84.38
2022-08-26T09:45:05.175Z,90.00
2022-08-26T09:46:05.207Z,90.00
2022-08-26T09:47:05.165Z,90.00
2022-08-26T09:48:05.144Z,95.62
2022-08-26T09:49:05.133Z,95.62
2022-08-26T09:50:05.142Z,90.00
2022-08-26T09:51:05.103Z,90.00
2022-08-26T09:52:05.126Z,95.62
2022-08-26T09:53:05.186Z,95.62
2022-08-26T09:54:05.626Z,90.00
2022-08-26T09:55:05.066Z,95.62
2022-08-26T09:56:05.066Z,90.00
2022-08-26T09:57:05.063Z,90.00
2022-08-26T09:58:07.738Z,90.00
2022-08-26T09:59:05.013Z,95.62
2022-08-26T10:00:05.017Z,95.62
2022-08-26T10:01:05.026Z,90.00
2022-08-26T10:02:05.037Z,90.00
2022-08-26T10:03:05.024Z,95.62
2022-08-26T10:04:04.991Z,95.62
2022-08-26T10:05:09.680Z,90.00
2022-08-26T10:06:04.951Z,95.62
2022-08-26T10:07:04.938Z,95.62
2022-08-26T10:08:04.978Z,95.62
2022-08-26T10:09:08.871Z,95.62
2022-08-26T10:10:04.906Z,101.25
2022-08-26T10:11:04.894Z,95.62
2022-08-26T10:12:04.871Z,95.62
2022-08-26T10:13:04.904Z,101.25
2022-08-26T10:14:04.879Z,101.25
2022-08-26T10:15:04.850Z,101.25
2022-08-26T10:16:05.694Z,101.25
2022-08-26T10:17:05.356Z,101.25
2022-08-26T10:18:04.832Z,101.25
2022-08-26T10:19:04.797Z,95.62
2022-08-26T10:20:04.838Z,101.25
2022-08-26T10:21:04.784Z,101.25
2022-08-26T10:22:04.770Z,106.88
2022-08-26T10:23:04.762Z,112.50
2022-08-26T10:24:04.754Z,118.12
2022-08-26T10:25:04.742Z,112.50
2022-08-26T10:26:04.720Z,118.12
2022-08-26T10:27:04.762Z,118.12
2022-08-26T10:28:04.783Z,118.12
2022-08-26T10:29:04.697Z,118.12
2022-08-26T10:30:04.675Z,129.38
2022-08-26T10:31:04.703Z,118.12
2022-08-26T10:32:04.738Z,106.88
2022-08-26T10:33:04.688Z,112.50
2022-08-26T10:34:04.690Z,112.50
2022-08-26T10:35:04.634Z,112.50
2022-08-26T10:36:04.652Z,112.50
2022-08-26T10:37:14.304Z,112.50
2022-08-26T10:38:04.593Z,112.50
2022-08-26T10:39:04.619Z,106.88
2022-08-26T10:40:04.618Z,101.25
2022-08-26T10:41:10.395Z,101.25
2022-08-26T10:42:04.570Z,90.00
2022-08-26T10:43:09.963Z,84.38
2022-08-26T10:44:04.530Z,84.38
2022-08-26T10:45:04.566Z,84.38
2022-08-26T10:46:04.648Z,84.38
2022-08-26T10:47:04.523Z,84.38
2022-08-26T10:48:04.478Z,84.38
2022-08-26T10:49:04.465Z,84.38
2022-08-26T10:50:04.459Z,84.38
2022-08-26T10:51:04.447Z,90.00
2022-08-26T10:52:04.454Z,90.00
2022-08-26T10:53:04.455Z,101.25
2022-08-26T10:54:04.406Z,95.62
2022-08-26T10:55:04.475Z,95.62
2022-08-26T10:56:04.432Z,101.25
2022-08-26T10:57:04.399Z,106.88
2022-08-26T10:58:04.709Z,106.88
2022-08-26T10:59:04.360Z,106.88
2022-08-26T11:00:04.358Z,106.88
2022-08-26T11:01:10.408Z,106.88
2022-08-26T11:02:04.331Z,106.88
2022-08-26T11:03:04.339Z,106.88
2022-08-26T11:04:04.385Z,106.88
2022-08-26T11:05:04.287Z,112.50
2022-08-26T11:06:04.270Z,118.12
2022-08-26T11:07:04.303Z,118.12
2022-08-26T11:08:04.261Z,118.12
2022-08-26T11:09:04.301Z,118.12
2022-08-26T11:10:04.267Z,118.12
2022-08-26T11:11:04.219Z,118.12
2022-08-26T11:12:10.007Z,118.12
2022-08-26T11:13:04.221Z,118.12
2022-08-26T11:14:04.197Z,123.75
2022-08-26T11:15:05.195Z,129.38
2022-08-26T11:16:04.202Z,129.38
2022-08-26T11:17:04.195Z,129.38
2022-08-26T11:18:04.149Z,123.75
2022-08-26T11:19:04.148Z,123.75
2022-08-26T11:20:09.067Z,129.38
2022-08-26T11:21:04.157Z,129.38
2022-08-26T11:22:04.168Z,129.38
2022-08-26T11:23:04.115Z,129.38
2022-08-26T11:24:04.158Z,129.38
2022-08-26T11:25:04.092Z,129.38
2022-08-26T11:26:04.093Z,129.38
2022-08-26T11:27:04.051Z,129.38
2022-08-26T11:28:04.238Z,135.00
2022-08-26T11:29:04.057Z,140.62
2022-08-26T11:30:04.020Z,140.62
2022-08-26T11:31:04.522Z,146.25
2022-08-26T11:32:04.039Z,151.88
2022-08-26T11:33:03.983Z,151.88
2022-08-26T11:34:03.973Z,157.50
2022-08-26T11:35:03.965Z,163.12
2022-08-26T11:36:11.522Z,168.75
2022-08-26T11:37:04.078Z,174.38
2022-08-26T11:38:04.290Z,174.38
2022-08-26T11:39:03.929Z,185.62
2022-08-26T11:40:04.092Z,185.62
2022-08-26T11:41:03.906Z,230.62
2022-08-26T11:42:03.915Z,196.88
2022-08-26T11:43:03.869Z,180.00
2022-08-26T11:44:03.889Z,163.12
2022-08-26T11:45:05.645Z,163.12
2022-08-26T11:46:03.947Z,163.12
2022-08-26T11:47:03.829Z,168.75
2022-08-26T11:48:03.854Z,174.38
2022-08-26T11:49:03.818Z,168.75
2022-08-26T11:50:03.808Z,168.75
2022-08-26T11:51:03.808Z,168.75
2022-08-26T11:52:03.780Z,163.12
2022-08-26T11:53:03.798Z,157.50
2022-08-26T11:54:03.760Z,157.50
2022-08-26T11:55:03.751Z,163.12
2022-08-26T11:56:03.731Z,163.12
2022-08-26T11:57:09.362Z,163.12
2022-08-26T11:58:04.850Z,157.50
2022-08-26T11:59:03.724Z,163.12
2022-08-26T12:00:03.686Z,168.75
2022-08-26T12:01:03.768Z,174.38
2022-08-26T12:02:03.675Z,180.00
2022-08-26T12:03:03.746Z,185.62
2022-08-26T12:04:03.781Z,213.75
2022-08-26T12:05:03.674Z,208.12
2022-08-26T12:06:03.633Z,191.25
2022-08-26T12:07:03.615Z,191.25
2022-08-26T12:08:03.684Z,185.62
2022-08-26T12:09:03.590Z,185.62
2022-08-26T12:10:03.621Z,191.25
2022-08-26T12:11:03.579Z,174.38
2022-08-26T12:12:03.564Z,168.75
2022-08-26T12:13:03.563Z,163.12
2022-08-26T12:14:03.550Z,163.12
2022-08-26T12:15:03.560Z,163.12
2022-08-26T12:16:03.589Z,168.75
2022-08-26T12:17:03.510Z,174.38
2022-08-26T12:18:03.521Z,174.38
2022-08-26T12:19:03.501Z,168.75
2022-08-26T12:20:03.512Z,168.75
2022-08-26T12:21:03.498Z,168.75
2022-08-26T12:22:03.484Z,168.75
2022-08-26T12:23:03.478Z,168.75
2022-08-26T12:24:03.440Z,168.75
2022-08-26T12:25:03.425Z,174.38
2022-08-26T12:26:03.436Z,174.38
2022-08-26T12:27:03.411Z,180.00
2022-08-26T12:28:03.399Z,185.62
2022-08-26T12:29:10.026Z,202.50
2022-08-26T12:30:03.399Z,230.62
2022-08-26T12:31:03.362Z,320.62
2022-08-26T12:32:03.455Z,309.38
2022-08-26T12:33:03.347Z,219.38
2022-08-26T12:34:03.345Z,208.12
2022-08-26T12:36:03.324Z,230.62
2022-08-26T12:37:03.327Z,309.38
2022-08-26T12:38:03.324Z,253.12
2022-08-26T12:39:03.285Z,185.62
2022-08-26T12:40:03.399Z,185.62
2022-08-26T12:41:03.276Z,185.62
2022-08-26T12:42:03.263Z,180.00
2022-08-26T12:43:03.255Z,247.50
2022-08-26T12:44:03.241Z,298.12
2022-08-26T12:45:03.227Z,208.12
2022-08-26T12:46:03.257Z,185.62
2022-08-26T12:47:03.226Z,191.25
2022-08-26T12:48:03.272Z,303.75
2022-08-26T12:49:03.181Z,202.50
2022-08-26T12:50:03.194Z,275.62
2022-08-26T12:51:03.161Z,286.88
2022-08-26T12:52:03.130Z,185.62
2022-08-26T12:53:03.153Z,180.00
2022-08-26T12:54:03.135Z,196.88
2022-08-26T12:55:03.099Z,270.00
2022-08-26T12:56:03.116Z,185.62
2022-08-26T12:57:03.083Z,202.50
2022-08-26T12:58:03.205Z,185.62